createdAt,value
2019-01-10T00:02:00.777Z,9.43
2019-01-10T00:04:32.219Z,14.37
2019-01-10T00:07:03.767Z,10.50
2019-01-10T00:09:35.202Z,12.67
2019-01-10T00:12:04.672Z,9.63
2019-01-10T00:14:35.134Z,12.40
2019-01-10T00:17:04.571Z,12.23
2019-01-10T00:19:34.067Z,12.13
2019-01-10T00:22:03.523Z,9.57
2019-01-10T00:24:34.966Z,9.77
2019-01-10T00:27:13.409Z,10.33
2019-01-10T00:29:44.841Z,9.83
2019-01-10T00:32:17.306Z,10.53
2019-01-10T00:34:46.756Z,11.20
2019-01-10T00:37:16.129Z,7.30
2019-01-10T00:39:46.578Z,7.00
2019-01-10T00:42:17.022Z,11.53
2019-01-10T00:44:50.013Z,12.87
2019-01-10T00:47:19.421Z,9.20
2019-01-10T00:49:49.883Z,11.87
2019-01-10T00:52:21.344Z,8.27
2019-01-10T00:54:50.755Z,10.27
2019-01-10T00:57:21.219Z,11.87
2019-01-10T00:59:53.823Z,14.37
2019-01-10T01:02:31.393Z,6.77
2019-01-10T01:05:00.945Z,7.70
2019-01-10T01:07:37.547Z,9.53
2019-01-10T01:10:08.929Z,12.70
2019-01-10T01:12:38.346Z,10.20
2019-01-10T01:15:09.768Z,8.07
2019-01-10T01:17:40.212Z,8.00
2019-01-10T01:20:18.620Z,10.07
2019-01-10T01:22:54.878Z,11.87
2019-01-10T01:25:24.294Z,9.70
2019-01-10T01:27:56.890Z,13.13
2019-01-10T01:30:32.679Z,9.10
2019-01-10T01:33:02.113Z,10.43
2019-01-10T01:35:31.584Z,11.57
2019-01-10T01:38:00.978Z,15.83
2019-01-10T01:40:36.264Z,12.60
2019-01-10T01:43:11.849Z,10.87
2019-01-10T01:45:41.341Z,10.53
2019-01-10T01:48:21.074Z,11.70
2019-01-10T01:50:51.512Z,9.10
2019-01-10T01:53:27.241Z,10.77
2019-01-10T01:56:03.940Z,12.20
2019-01-10T01:58:33.327Z,11.57
2019-01-10T02:01:03.192Z,9.43
2019-01-10T02:03:38.738Z,12.30
2019-01-10T02:06:09.545Z,10.93
2019-01-10T02:08:38.973Z,10.07
2019-01-10T02:11:08.317Z,10.83
2019-01-10T02:13:37.707Z,9.47
2019-01-10T02:16:08.098Z,10.20
2019-01-10T02:18:37.501Z,8.23
2019-01-10T02:21:09.150Z,10.37
2019-01-10T02:23:38.440Z,8.97
2019-01-10T02:26:07.928Z,12.07
2019-01-10T02:28:37.320Z,9.03
2019-01-10T02:31:06.734Z,10.47
2019-01-10T02:33:36.126Z,7.67
2019-01-10T02:36:05.675Z,9.90
2019-01-10T02:38:35.083Z,9.20
2019-01-10T02:41:04.479Z,8.47
2019-01-10T02:43:33.878Z,7.53
2019-01-10T02:46:03.271Z,8.93
2019-01-10T02:48:32.651Z,8.57
2019-01-10T02:51:02.073Z,10.07
2019-01-10T02:53:31.450Z,9.53
2019-01-10T02:56:00.858Z,6.77
2019-01-10T02:58:30.228Z,9.83
2019-01-10T03:00:59.625Z,12.20
2019-01-10T03:03:29.414Z,9.63
2019-01-10T03:05:58.803Z,13.23
2019-01-10T03:08:28.192Z,13.00
2019-01-10T03:10:57.699Z,10.33
2019-01-10T03:13:36.274Z,7.90
2019-01-10T03:16:00.245Z,11.93
2019-01-10T03:18:29.636Z,12.13
2019-01-10T03:21:01.262Z,11.03
2019-01-10T03:23:36.569Z,8.87
2019-01-10T03:26:11.348Z,14.63
2019-01-10T03:28:44.006Z,12.70
2019-01-10T03:31:13.473Z,15.37
2019-01-10T03:33:46.685Z,8.30
2019-01-10T03:36:17.178Z,9.60
2019-01-10T03:38:46.558Z,9.37
2019-01-10T03:41:21.178Z,8.77
2019-01-10T03:44:11.381Z,8.47
2019-01-10T03:46:41.893Z,12.03
2019-01-10T03:49:13.505Z,8.97
2019-01-10T03:51:49.013Z,8.27
2019-01-10T03:54:18.500Z,8.87
2019-01-10T03:56:49.992Z,11.00
2019-01-10T03:59:21.897Z,8.90
2019-01-10T04:01:59.255Z,10.43
2019-01-10T04:04:30.683Z,8.93
2019-01-10T04:07:06.032Z,11.80
2019-01-10T04:09:43.642Z,11.20
2019-01-10T04:12:13.112Z,9.00
2019-01-10T04:15:11.696Z,8.80
2019-01-10T04:17:44.243Z,8.00
2019-01-10T04:20:19.038Z,11.13
2019-01-10T04:22:50.494Z,13.00
2019-01-10T04:25:19.912Z,10.90
2019-01-10T04:27:50.327Z,9.73
2019-01-10T04:30:21.621Z,9.07
2019-01-10T04:32:51.178Z,10.73
2019-01-10T04:35:20.657Z,12.20
2019-01-10T04:37:50.129Z,10.33
2019-01-10T04:40:20.939Z,6.87
2019-01-10T04:43:06.786Z,7.70
2019-01-10T04:45:36.244Z,9.90
2019-01-10T04:48:05.722Z,10.23
2019-01-10T04:50:36.236Z,7.30
2019-01-10T04:53:05.980Z,10.27
2019-01-10T04:55:35.437Z,11.73
2019-01-10T04:58:04.921Z,9.60
2019-01-10T05:00:35.414Z,8.47
2019-01-10T05:03:04.884Z,10.33
2019-01-10T05:05:34.302Z,7.80
2019-01-10T05:08:04.652Z,7.63
2019-01-10T05:10:36.262Z,6.77
2019-01-10T05:13:05.727Z,13.50
2019-01-10T05:15:37.203Z,11.20
2019-01-10T05:18:13.829Z,8.33
2019-01-10T05:20:43.317Z,33.60
2019-01-10T05:23:12.821Z,11.37
2019-01-10T05:25:43.273Z,9.53
2019-01-10T05:28:18.706Z,18.90
2019-01-10T05:30:48.224Z,11.83
2019-01-10T05:33:17.722Z,9.00
2019-01-10T05:35:49.221Z,10.83
2019-01-10T05:38:18.737Z,10.77
2019-01-10T05:40:48.139Z,8.90
2019-01-10T05:43:17.538Z,11.53
2019-01-10T05:45:46.964Z,13.50
2019-01-10T05:48:20.572Z,10.37
2019-01-10T05:50:51.100Z,12.33
2019-01-10T05:53:26.388Z,9.37
2019-01-10T05:55:58.971Z,11.93
2019-01-10T05:58:30.414Z,11.10
2019-01-10T06:01:13.260Z,8.33
2019-01-10T06:03:53.409Z,8.80
2019-01-10T06:06:32.220Z,12.03
2019-01-10T06:09:09.849Z,7.03
2019-01-10T06:11:45.581Z,10.00
2019-01-10T06:14:21.205Z,11.67
2019-01-10T06:16:52.070Z,11.40
2019-01-10T06:19:27.011Z,9.53
2019-01-10T06:21:58.809Z,9.40
2019-01-10T06:24:28.266Z,11.63
2019-01-10T06:26:59.994Z,7.07
2019-01-10T06:29:29.508Z,7.53
2019-01-10T06:31:59.013Z,9.87
2019-01-10T06:34:30.490Z,12.37
2019-01-10T06:37:03.071Z,14.37
2019-01-10T06:39:34.430Z,12.00
2019-01-10T06:42:03.875Z,7.33
2019-01-10T06:44:35.327Z,10.47
2019-01-10T06:47:06.064Z,10.70
2019-01-10T06:49:35.581Z,10.80
2019-01-10T06:52:13.060Z,11.00
2019-01-10T06:54:42.465Z,8.90
2019-01-10T06:57:18.091Z,11.10
2019-01-10T06:59:47.560Z,16.47
2019-01-10T07:02:22.977Z,13.83
2019-01-10T07:04:52.439Z,11.30
2019-01-10T07:07:22.120Z,9.97
2019-01-10T07:09:51.610Z,10.43
2019-01-10T07:12:21.195Z,9.03
2019-01-10T07:14:53.717Z,10.37
2019-01-10T07:17:27.686Z,7.93
2019-01-10T07:19:58.181Z,11.53
2019-01-10T07:22:27.720Z,11.70
2019-01-10T07:24:58.399Z,12.37
2019-01-10T07:27:31.183Z,14.90
2019-01-10T07:30:08.145Z,9.93
2019-01-10T07:32:39.684Z,9.40
2019-01-10T07:35:13.252Z,12.87
2019-01-10T07:37:44.708Z,12.13
2019-01-10T07:40:17.002Z,10.57
2019-01-10T07:42:47.421Z,14.70
2019-01-10T07:45:22.296Z,10.50
2019-01-10T07:47:51.896Z,16.17
2019-01-10T07:50:43.711Z,9.37
2019-01-10T07:53:14.193Z,8.40
2019-01-10T07:55:45.832Z,11.20
2019-01-10T07:58:15.256Z,11.67
2019-01-10T08:00:44.882Z,14.17
2019-01-10T08:03:19.467Z,11.40
2019-01-10T08:05:50.915Z,19.07
2019-01-10T08:08:35.728Z,11.00
2019-01-10T08:11:06.370Z,12.07
2019-01-10T08:13:36.849Z,12.27
2019-01-10T08:16:06.284Z,11.90
2019-01-10T08:18:36.620Z,15.33
2019-01-10T08:21:08.127Z,16.50
2019-01-10T08:23:51.684Z,13.57
2019-01-10T08:26:22.177Z,17.13
2019-01-10T08:28:52.597Z,14.90
2019-01-10T08:31:23.298Z,10.63
2019-01-10T08:33:52.705Z,8.30
2019-01-10T08:36:22.217Z,7.93
2019-01-10T08:38:51.711Z,14.87
2019-01-10T08:41:21.150Z,13.70
2019-01-10T08:43:51.032Z,12.30
2019-01-10T08:46:22.724Z,16.13
2019-01-10T08:48:56.290Z,15.50
2019-01-10T08:51:25.777Z,13.10
2019-01-10T08:53:56.186Z,9.90
2019-01-10T08:56:25.913Z,13.80
2019-01-10T08:58:55.335Z,14.20
2019-01-10T09:01:24.859Z,8.10
2019-01-10T09:03:55.450Z,10.53
2019-01-10T09:06:24.788Z,12.63
2019-01-10T09:08:56.440Z,14.40
2019-01-10T09:11:25.916Z,10.57
2019-01-10T09:13:56.300Z,11.47
2019-01-10T09:16:29.897Z,9.30
2019-01-10T09:19:00.434Z,15.03
2019-01-10T09:21:37.184Z,15.33
2019-01-10T09:24:15.881Z,11.97
2019-01-10T09:26:45.347Z,18.53
2019-01-10T09:29:14.873Z,11.40
2019-01-10T09:31:50.219Z,11.07
2019-01-10T09:34:24.643Z,13.87
2019-01-10T09:36:50.874Z,18.97
2019-01-10T09:39:22.329Z,19.20
2019-01-10T09:41:52.872Z,26.57
2019-01-10T09:44:22.278Z,13.13
2019-01-10T09:47:02.933Z,15.20
2019-01-10T09:49:33.393Z,14.93
2019-01-10T09:52:04.874Z,18.77
2019-01-10T09:54:42.361Z,19.77
2019-01-10T09:57:18.156Z,41.37
2019-01-10T09:59:56.857Z,31.87
2019-01-10T10:02:26.312Z,52.93
2019-01-10T10:04:55.787Z,19.63
2019-01-10T10:07:33.027Z,15.33
2019-01-10T10:10:02.541Z,11.80
2019-01-10T10:12:34.025Z,11.13
2019-01-10T10:15:03.899Z,9.23
2019-01-10T10:17:33.277Z,67.87
2019-01-10T10:20:04.025Z,13.17
2019-01-10T10:22:33.477Z,11.17
2019-01-10T10:25:02.905Z,12.97
2019-01-10T10:27:33.326Z,12.33
2019-01-10T10:30:04.246Z,10.97
2019-01-10T10:32:33.657Z,14.27
2019-01-10T10:35:14.125Z,10.83
2019-01-10T10:37:47.099Z,14.40
2019-01-10T10:40:20.688Z,11.23
2019-01-10T10:42:50.731Z,9.73
2019-01-10T10:45:21.797Z,14.90
2019-01-10T10:47:54.280Z,13.77
2019-01-10T10:50:34.850Z,12.27
2019-01-10T10:53:06.349Z,14.03
2019-01-10T10:55:35.884Z,15.27
2019-01-10T10:58:05.836Z,13.70
2019-01-10T11:00:43.276Z,15.53
2019-01-10T11:03:14.791Z,12.57
2019-01-10T11:05:48.368Z,13.73
2019-01-10T11:08:17.886Z,13.97
2019-01-10T11:10:47.437Z,10.50
2019-01-10T11:13:18.868Z,9.97
2019-01-10T11:15:48.415Z,10.97
2019-01-10T11:18:17.885Z,13.60
2019-01-10T11:20:48.494Z,13.33
2019-01-10T11:23:27.273Z,11.60
2019-01-10T11:26:00.832Z,11.70
2019-01-10T11:28:34.433Z,13.77
2019-01-10T11:31:05.066Z,12.87
2019-01-10T11:33:41.806Z,8.13
2019-01-10T11:36:13.284Z,15.00
2019-01-10T11:38:48.711Z,11.37
2019-01-10T11:41:19.203Z,10.70
2019-01-10T11:43:48.939Z,14.67
2019-01-10T11:46:19.797Z,15.87
2019-01-10T11:48:49.664Z,19.03
2019-01-10T11:51:19.138Z,14.83
2019-01-10T11:53:48.593Z,8.50
2019-01-10T11:56:18.061Z,8.37
2019-01-10T11:58:58.771Z,10.83
2019-01-10T12:01:30.194Z,8.80
2019-01-10T12:04:10.775Z,12.10
2019-01-10T12:06:46.468Z,11.00
2019-01-10T12:09:19.024Z,10.63
2019-01-10T12:11:49.443Z,13.00
2019-01-10T12:14:32.369Z,15.20
2019-01-10T12:17:01.808Z,14.00
2019-01-10T12:19:31.299Z,15.37
2019-01-10T12:22:00.790Z,14.73
2019-01-10T12:24:31.240Z,13.87
2019-01-10T12:27:09.368Z,9.17
2019-01-10T12:29:38.780Z,11.70
2019-01-10T12:32:08.267Z,14.27
2019-01-10T12:34:38.822Z,13.93
2019-01-10T12:37:14.612Z,13.97
2019-01-10T12:39:45.043Z,11.70
2019-01-10T12:42:15.552Z,12.03
2019-01-10T12:44:44.926Z,16.27
2019-01-10T12:47:14.368Z,10.63
2019-01-10T12:49:46.845Z,10.17
2019-01-10T12:52:17.291Z,13.53
2019-01-10T12:54:51.429Z,11.97
2019-01-10T12:57:26.895Z,11.37
2019-01-10T12:59:57.262Z,15.57
2019-01-10T13:02:32.554Z,9.87
2019-01-10T13:05:11.352Z,14.27
2019-01-10T13:07:41.862Z,9.27
2019-01-10T13:10:14.627Z,7.40
2019-01-10T13:12:51.652Z,11.20
2019-01-10T13:15:28.495Z,13.03
2019-01-10T13:17:58.052Z,12.17
2019-01-10T13:20:27.597Z,11.77
2019-01-10T13:23:00.154Z,9.07
2019-01-10T13:25:31.608Z,10.33
2019-01-10T13:28:01.129Z,11.10
2019-01-10T13:30:36.473Z,13.67
2019-01-10T13:33:06.959Z,13.03
2019-01-10T13:35:37.374Z,10.07
2019-01-10T13:38:06.890Z,12.97
2019-01-10T13:40:37.287Z,14.43
2019-01-10T13:43:07.786Z,15.30
2019-01-10T13:45:45.819Z,15.33
2019-01-10T13:48:10.278Z,6.73
2019-01-10T13:50:45.570Z,9.93
2019-01-10T13:53:21.776Z,11.27
2019-01-10T13:55:51.237Z,10.87
2019-01-10T13:58:20.735Z,12.73
2019-01-10T14:00:52.227Z,13.73
2019-01-10T14:03:21.680Z,12.97
2019-01-10T14:05:51.188Z,11.50
2019-01-10T14:08:20.654Z,15.70
2019-01-10T14:10:52.102Z,12.60
2019-01-10T14:13:21.515Z,14.23
2019-01-10T14:15:54.134Z,13.97
2019-01-10T14:18:25.736Z,12.23
2019-01-10T14:21:01.146Z,11.90
2019-01-10T14:23:31.585Z,14.70
2019-01-10T14:26:01.063Z,12.50
2019-01-10T14:28:30.471Z,10.97
2019-01-10T14:31:00.979Z,12.97
2019-01-10T14:33:31.173Z,11.87
2019-01-10T14:36:10.798Z,15.93
2019-01-10T14:38:40.761Z,16.77
2019-01-10T14:41:10.272Z,17.67
2019-01-10T14:43:44.851Z,16.17
2019-01-10T14:46:14.303Z,19.57
2019-01-10T14:48:45.811Z,16.67
2019-01-10T14:51:17.324Z,12.67
2019-01-10T14:53:46.799Z,11.90
2019-01-10T14:56:16.306Z,13.30
2019-01-10T14:58:47.937Z,17.60
2019-01-10T15:01:18.483Z,11.93
2019-01-10T15:03:47.995Z,12.93
2019-01-10T15:06:40.802Z,14.80
2019-01-10T15:09:10.238Z,15.73
2019-01-10T15:11:41.761Z,14.37
2019-01-10T15:14:16.288Z,11.37
2019-01-10T15:16:44.423Z,15.53
2019-01-10T15:19:25.084Z,15.87
2019-01-10T15:21:54.565Z,14.57
2019-01-10T15:24:36.111Z,14.93
2019-01-10T15:27:05.647Z,11.20
2019-01-10T15:29:35.119Z,11.30
2019-01-10T15:32:10.570Z,16.27
2019-01-10T15:34:40.052Z,15.67
2019-01-10T15:37:09.504Z,11.90
2019-01-10T15:39:38.919Z,18.43
2019-01-10T15:42:09.417Z,12.93
2019-01-10T15:44:44.720Z,14.00
2019-01-10T15:47:16.740Z,12.07
2019-01-10T15:49:46.335Z,14.00
2019-01-10T15:52:22.869Z,10.83
2019-01-10T15:54:52.355Z,14.77
2019-01-10T15:57:21.822Z,10.37
2019-01-10T15:59:52.232Z,14.47
2019-01-10T16:02:22.242Z,12.77
2019-01-10T16:04:59.091Z,13.07
2019-01-10T16:07:29.669Z,14.33
2019-01-10T16:10:09.421Z,13.63
2019-01-10T16:12:41.950Z,15.80
2019-01-10T16:15:14.236Z,14.43
2019-01-10T16:17:43.706Z,14.83
2019-01-10T16:20:15.389Z,9.13
2019-01-10T16:22:45.287Z,14.73
2019-01-10T16:25:15.064Z,17.83
2019-01-10T16:27:44.604Z,15.40
2019-01-10T16:30:16.811Z,10.10
2019-01-10T16:32:46.240Z,13.47
2019-01-10T16:35:15.977Z,12.63
2019-01-10T16:37:45.703Z,14.13
2019-01-10T16:40:19.241Z,14.73
2019-01-10T16:42:48.626Z,16.60
2019-01-10T16:45:23.072Z,15.40
2019-01-10T16:47:52.587Z,16.23
2019-01-10T16:50:22.092Z,21.27
2019-01-10T16:52:57.333Z,14.23
2019-01-10T16:55:26.767Z,14.30
2019-01-10T16:57:56.664Z,16.00
2019-01-10T17:00:33.175Z,13.20
2019-01-10T17:03:09.432Z,16.00
2019-01-10T17:05:40.921Z,20.63
2019-01-10T17:08:12.354Z,14.07
2019-01-10T17:10:41.760Z,19.23
2019-01-10T17:13:12.270Z,17.93
2019-01-10T17:15:56.940Z,15.77
2019-01-10T17:18:26.403Z,19.63
2019-01-10T17:20:58.025Z,18.43
2019-01-10T17:23:27.469Z,18.87
2019-01-10T17:25:57.939Z,17.27
2019-01-10T17:28:27.432Z,18.67
2019-01-10T17:30:59.133Z,31.17
2019-01-10T17:33:28.607Z,27.10
2019-01-10T17:36:03.659Z,19.20
2019-01-10T17:38:33.067Z,18.80
2019-01-10T17:41:02.573Z,22.70
2019-01-10T17:43:33.090Z,19.73
2019-01-10T17:46:02.584Z,22.70
2019-01-10T17:48:32.135Z,31.27
2019-01-10T17:51:01.605Z,24.20
2019-01-10T17:53:33.083Z,26.90
2019-01-10T17:56:03.523Z,24.53
2019-01-10T17:58:34.957Z,18.43
2019-01-10T18:01:06.563Z,23.37
2019-01-10T18:03:40.105Z,25.60
2019-01-10T18:06:07.447Z,26.03
2019-01-10T18:08:39.997Z,24.13
2019-01-10T18:11:14.664Z,20.70
2019-01-10T18:13:44.188Z,32.67
2019-01-10T18:16:13.693Z,22.20
2019-01-10T18:18:43.212Z,20.70
2019-01-10T18:21:19.617Z,25.27
2019-01-10T18:23:49.110Z,46.43
2019-01-10T18:26:19.436Z,20.10
2019-01-10T18:28:50.231Z,20.50
2019-01-10T18:31:20.717Z,26.23
2019-01-10T18:33:50.225Z,41.07
2019-01-10T18:36:19.670Z,29.37
2019-01-10T18:38:50.168Z,22.27
2019-01-10T18:41:25.685Z,21.47
2019-01-10T18:43:55.243Z,20.43
2019-01-10T18:46:25.736Z,25.53
2019-01-10T18:48:55.156Z,39.77
2019-01-10T18:51:30.609Z,23.40
2019-01-10T18:54:03.069Z,21.87
2019-01-10T18:56:34.553Z,29.10
2019-01-10T18:59:05.993Z,25.47
2019-01-10T19:01:36.462Z,17.33
2019-01-10T19:04:08.649Z,21.53
2019-01-10T19:06:40.072Z,18.90
2019-01-10T19:09:09.649Z,17.30
2019-01-10T19:11:39.201Z,26.27
2019-01-10T19:14:10.663Z,22.20
2019-01-10T19:16:41.143Z,19.00
2019-01-10T19:19:10.643Z,22.93
2019-01-10T19:21:40.101Z,18.53
2019-01-10T19:24:19.406Z,21.37
2019-01-10T19:26:52.991Z,24.80
2019-01-10T19:29:24.458Z,27.77
2019-01-10T19:31:54.080Z,19.63
2019-01-10T19:34:24.963Z,22.80
2019-01-10T19:36:54.381Z,23.23
2019-01-10T19:39:31.032Z,25.60
2019-01-10T19:42:03.560Z,22.97
2019-01-10T19:44:47.877Z,23.63
2019-01-10T19:47:17.326Z,26.33
2019-01-10T19:49:46.751Z,21.17
2019-01-10T19:52:16.275Z,26.90
2019-01-10T19:54:56.467Z,26.53
2019-01-10T19:57:26.007Z,23.60
2019-01-10T19:59:55.638Z,23.93
2019-01-10T20:02:25.115Z,22.43
2019-01-10T20:04:54.606Z,26.07
2019-01-10T20:07:38.348Z,20.47
2019-01-10T20:10:10.214Z,23.47
2019-01-10T20:12:44.704Z,23.93
2019-01-10T20:15:16.022Z,19.07
2019-01-10T20:17:46.548Z,27.97
2019-01-10T20:20:21.963Z,27.60
2019-01-10T20:22:51.470Z,30.17
2019-01-10T20:25:20.989Z,24.03
2019-01-10T20:27:51.522Z,27.30
2019-01-10T20:30:22.986Z,25.93
2019-01-10T20:32:52.556Z,22.30
2019-01-10T20:35:24.069Z,26.07
2019-01-10T20:37:53.475Z,24.47
2019-01-10T20:40:25.274Z,27.30
2019-01-10T20:43:00.684Z,24.30
2019-01-10T20:45:30.156Z,22.90
2019-01-10T20:48:01.796Z,29.30
2019-01-10T20:50:31.363Z,25.10
2019-01-10T20:53:00.824Z,25.10
2019-01-10T20:55:38.551Z,26.90
2019-01-10T20:58:09.201Z,26.47
2019-01-10T21:00:38.731Z,22.07
2019-01-10T21:03:08.241Z,23.40
2019-01-10T21:05:37.888Z,25.30
2019-01-10T21:08:07.336Z,21.23
2019-01-10T21:10:44.937Z,24.87
2019-01-10T21:13:14.474Z,22.80
2019-01-10T21:15:43.905Z,25.57
2019-01-10T21:18:14.473Z,24.57
2019-01-10T21:20:47.560Z,25.90
2019-01-10T21:23:18.043Z,29.70
2019-01-10T21:25:47.667Z,25.33
2019-01-10T21:28:24.505Z,19.90
2019-01-10T21:30:54.679Z,27.53
2019-01-10T21:33:26.445Z,21.13
2019-01-10T21:35:55.904Z,23.70
2019-01-10T21:38:27.337Z,23.37
2019-01-10T21:40:58.864Z,23.20
2019-01-10T21:43:30.314Z,26.53
2019-01-10T21:46:01.766Z,23.97
2019-01-10T21:48:36.306Z,28.67
2019-01-10T21:51:09.829Z,20.70
2019-01-10T21:53:39.290Z,25.73
2019-01-10T21:56:10.807Z,20.40
2019-01-10T21:58:41.230Z,25.13
2019-01-10T22:01:11.806Z,21.40
2019-01-10T22:03:43.223Z,25.60
2019-01-10T22:06:12.710Z,26.20
2019-01-10T22:08:46.296Z,28.73
2019-01-10T22:11:27.035Z,24.33
2019-01-10T22:14:12.683Z,22.33
2019-01-10T22:16:49.315Z,25.03
2019-01-10T22:19:27.737Z,29.33
2019-01-10T22:21:57.193Z,23.97
2019-01-10T22:24:26.659Z,26.60
2019-01-10T22:26:57.112Z,24.93
2019-01-10T22:29:37.849Z,32.00
2019-01-10T22:32:08.375Z,25.27
2019-01-10T22:34:43.732Z,22.27
2019-01-10T22:37:13.197Z,28.30
2019-01-10T22:39:46.432Z,25.83
2019-01-10T22:42:15.970Z,26.57
2019-01-10T22:44:46.372Z,27.80
2019-01-10T22:47:25.076Z,29.33
2019-01-10T22:49:58.518Z,26.63
2019-01-10T22:52:28.297Z,28.37
2019-01-10T22:54:57.739Z,25.93
2019-01-10T22:57:35.997Z,26.23
2019-01-10T23:00:28.432Z,23.97
2019-01-10T23:03:05.477Z,27.70
2019-01-10T23:05:39.329Z,29.73
2019-01-10T23:08:08.806Z,28.13
2019-01-10T23:10:38.282Z,30.93
2019-01-10T23:13:07.795Z,29.77
2019-01-10T23:15:37.251Z,29.80
2019-01-10T23:18:07.888Z,28.33
2019-01-10T23:20:39.369Z,30.90
2019-01-10T23:23:14.689Z,31.93
2019-01-10T23:25:54.453Z,27.43
2019-01-10T23:28:24.559Z,26.93
2019-01-10T23:30:59.846Z,32.17
2019-01-10T23:33:29.726Z,30.73
2019-01-10T23:36:02.270Z,31.03
2019-01-10T23:38:31.902Z,40.90
2019-01-10T23:41:01.847Z,36.27
2019-01-10T23:43:32.355Z,35.03
2019-01-10T23:46:01.864Z,33.80
2019-01-10T23:48:32.295Z,37.43
2019-01-10T23:51:01.731Z,33.20
2019-01-10T23:53:32.176Z,42.10
2019-01-10T23:56:03.602Z,38.07
2019-01-10T23:58:46.079Z,36.23
